sensor_id;sensor_type;location;lat;lon;timestamp;pressure;altitude;pressure_sealevel;temperature;humidity
74631;BME280;63138;55.082;38.804;2023-03-14T00:00:35;99946.97;;;-5.76;76.84
74631;BME280;63138;55.082;38.804;2023-03-14T00:03:01;99951.31;;;-5.74;76.84
74631;BME280;63138;55.082;38.804;2023-03-14T00:05:27;99938.91;;;-5.72;76.91
74631;BME280;63138;55.082;38.804;2023-03-14T00:07:53;99938.78;;;-5.71;76.79
74631;BME280;63138;55.082;38.804;2023-03-14T00:10:20;99944.78;;;-5.67;76.49
74631;BME280;63138;55.082;38.804;2023-03-14T00:12:45;99944.78;;;-5.67;76.84
74631;BME280;63138;55.082;38.804;2023-03-14T00:15:12;99937.66;;;-5.65;76.60
74631;BME280;63138;55.082;38.804;2023-03-14T00:17:38;99930.56;;;-5.65;76.77
74631;BME280;63138;55.082;38.804;2023-03-14T00:20:06;99939.22;;;-5.61;76.41
74631;BME280;63138;55.082;38.804;2023-03-14T00:22:35;99918.69;;;-5.56;76.54
74631;BME280;63138;55.082;38.804;2023-03-14T00:25:01;99910.97;;;-5.61;76.62
74631;BME280;63138;55.082;38.804;2023-03-14T00:27:28;99919.31;;;-5.51;76.59
74631;BME280;63138;55.082;38.804;2023-03-14T00:29:54;99912.00;;;-5.46;76.25
74631;BME280;63138;55.082;38.804;2023-03-14T00:32:20;99914.44;;;-5.41;75.83
74631;BME280;63138;55.082;38.804;2023-03-14T00:34:45;99909.75;;;-5.36;75.94
74631;BME280;63138;55.082;38.804;2023-03-14T00:37:11;99899.03;;;-5.33;76.09
74631;BME280;63138;55.082;38.804;2023-03-14T00:39:37;99905.03;;;-5.29;75.60
74631;BME280;63138;55.082;38.804;2023-03-14T00:42:03;99911.09;;;-5.27;75.67
74631;BME280;63138;55.082;38.804;2023-03-14T00:44:29;99902.91;;;-5.23;75.32
74631;BME280;63138;55.082;38.804;2023-03-14T00:46:55;99876.69;;;-5.27;75.68
74631;BME280;63138;55.082;38.804;2023-03-14T00:49:21;99890.44;;;-5.21;75.37
74631;BME280;63138;55.082;38.804;2023-03-14T00:51:46;99882.28;;;-5.16;75.65
74631;BME280;63138;55.082;38.804;2023-03-14T00:54:12;99881.09;;;-5.10;75.50
74631;BME280;63138;55.082;38.804;2023-03-14T00:56:38;99881.81;;;-5.07;74.82
74631;BME280;63138;55.082;38.804;2023-03-14T00:59:04;99876.34;;;-5.04;74.97
74631;BME280;63138;55.082;38.804;2023-03-14T01:01:30;99877.75;;;-4.96;74.94
74631;BME280;63138;55.082;38.804;2023-03-14T01:03:56;99872.97;;;-4.90;74.70
74631;BME280;63138;55.082;38.804;2023-03-14T01:06:24;99871.97;;;-4.87;74.91
74631;BME280;63138;55.082;38.804;2023-03-14T01:08:51;99879.66;;;-4.83;74.80
74631;BME280;63138;55.082;38.804;2023-03-14T01:11:26;99869.94;;;-4.82;74.89
74631;BME280;63138;55.082;38.804;2023-03-14T01:13:53;99874.81;;;-4.74;75.03
74631;BME280;63138;55.082;38.804;2023-03-14T01:16:21;99865.16;;;-4.75;75.54
74631;BME280;63138;55.082;38.804;2023-03-14T01:18:48;99872.16;;;-4.74;75.76
74631;BME280;63138;55.082;38.804;2023-03-14T01:21:19;99873.91;;;-4.73;75.76
74631;BME280;63138;55.082;38.804;2023-03-14T01:23:46;99866.72;;;-4.71;76.61
74631;BME280;63138;55.082;38.804;2023-03-14T01:26:14;99870.91;;;-4.67;77.10
74631;BME280;63138;55.082;38.804;2023-03-14T01:28:41;99859.38;;;-4.66;77.37
74631;BME280;63138;55.082;38.804;2023-03-14T01:31:09;99859.72;;;-4.56;78.50
74631;BME280;63138;55.082;38.804;2023-03-14T01:33:35;99862.84;;;-4.48;79.19
74631;BME280;63138;55.082;38.804;2023-03-14T01:36:02;99854.78;;;-4.47;79.68
74631;BME280;63138;55.082;38.804;2023-03-14T01:38:33;99855.06;;;-4.35;80.60
74631;BME280;63138;55.082;38.804;2023-03-14T01:41:00;99852.84;;;-4.27;80.86
74631;BME280;63138;55.082;38.804;2023-03-14T01:43:27;99849.19;;;-4.25;80.85
74631;BME280;63138;55.082;38.804;2023-03-14T01:48:39;99844.56;;;-4.21;82.26
74631;BME280;63138;55.082;38.804;2023-03-14T01:51:09;99837.53;;;-4.22;82.52
74631;BME280;63138;55.082;38.804;2023-03-14T01:53:39;99841.63;;;-4.16;82.67
74631;BME280;63138;55.082;38.804;2023-03-14T01:56:07;99845.25;;;-4.17;83.07
74631;BME280;63138;55.082;38.804;2023-03-14T01:58:34;99823.59;;;-4.26;82.99
74631;BME280;63138;55.082;38.804;2023-03-14T02:01:01;99841.81;;;-4.19;83.60
74631;BME280;63138;55.082;38.804;2023-03-14T02:03:29;99854.56;;;-4.10;83.99
74631;BME280;63138;55.082;38.804;2023-03-14T02:05:59;99850.19;;;-4.11;84.28
74631;BME280;63138;55.082;38.804;2023-03-14T02:08:29;99824.78;;;-4.15;84.88
74631;BME280;63138;55.082;38.804;2023-03-14T02:11:00;99842.41;;;-4.14;85.59
74631;BME280;63138;55.082;38.804;2023-03-14T02:13:49;99818.38;;;-4.11;85.98
74631;BME280;63138;55.082;38.804;2023-03-14T02:16:26;99814.09;;;-4.14;86.54
74631;BME280;63138;55.082;38.804;2023-03-14T02:19:08;99812.97;;;-4.10;86.82
74631;BME280;63138;55.082;38.804;2023-03-14T02:27:22;99787.28;;;-4.09;87.94
74631;BME280;63138;55.082;38.804;2023-03-14T02:29:53;99792.28;;;-4.03;88.11
74631;BME280;63138;55.082;38.804;2023-03-14T02:32:21;99785.06;;;-4.01;88.35
74631;BME280;63138;55.082;38.804;2023-03-14T02:34:55;99790.09;;;-3.96;88.52
74631;BME280;63138;55.082;38.804;2023-03-14T02:37:24;99751.72;;;-4.05;88.78
74631;BME280;63138;55.082;38.804;2023-03-14T02:39:52;99764.06;;;-3.90;88.82
74631;BME280;63138;55.082;38.804;2023-03-14T02:42:19;99759.38;;;-3.85;89.33
74631;BME280;63138;55.082;38.804;2023-03-14T02:47:24;99756.84;;;-3.72;89.82
74631;BME280;63138;55.082;38.804;2023-03-14T02:49:57;99756.66;;;-3.69;91.01
74631;BME280;63138;55.082;38.804;2023-03-14T02:52:25;99746.50;;;-3.62;90.64
74631;BME280;63138;55.082;38.804;2023-03-14T02:54:51;99742.75;;;-3.58;90.41
74631;BME280;63138;55.082;38.804;2023-03-14T02:57:17;99740.84;;;-3.56;90.48
74631;BME280;63138;55.082;38.804;2023-03-14T02:59:42;99744.78;;;-3.47;90.42
74631;BME280;63138;55.082;38.804;2023-03-14T03:02:14;99736.16;;;-3.36;90.22
74631;BME280;63138;55.082;38.804;2023-03-14T03:04:40;99717.75;;;-3.25;89.53
74631;BME280;63138;55.082;38.804;2023-03-14T03:07:06;99702.31;;;-3.18;89.74
74631;BME280;63138;55.082;38.804;2023-03-14T03:09:32;99704.66;;;-3.14;89.22
74631;BME280;63138;55.082;38.804;2023-03-14T03:11:59;99691.84;;;-3.07;89.05
74631;BME280;63138;55.082;38.804;2023-03-14T03:14:27;99688.34;;;-3.08;88.57
74631;BME280;63138;55.082;38.804;2023-03-14T03:16:56;99672.66;;;-2.98;88.23
74631;BME280;63138;55.082;38.804;2023-03-14T03:19:22;99663.81;;;-2.84;87.23
74631;BME280;63138;55.082;38.804;2023-03-14T03:21:49;99655.34;;;-2.76;86.83
74631;BME280;63138;55.082;38.804;2023-03-14T03:24:15;99682.41;;;-2.70;86.37
74631;BME280;63138;55.082;38.804;2023-03-14T03:26:41;99654.47;;;-2.62;85.59
74631;BME280;63138;55.082;38.804;2023-03-14T03:29:10;99649.38;;;-2.53;85.27
74631;BME280;63138;55.082;38.804;2023-03-14T03:31:38;99648.88;;;-2.45;84.51
74631;BME280;63138;55.082;38.804;2023-03-14T03:34:04;99644.97;;;-2.39;83.76
74631;BME280;63138;55.082;38.804;2023-03-14T03:36:30;99646.47;;;-2.35;83.59
74631;BME280;63138;55.082;38.804;2023-03-14T03:38:58;99648.06;;;-2.33;83.80
74631;BME280;63138;55.082;38.804;2023-03-14T03:41:24;99650.25;;;-2.25;83.38
74631;BME280;63138;55.082;38.804;2023-03-14T03:43:51;99651.94;;;-2.24;83.99
74631;BME280;63138;55.082;38.804;2023-03-14T03:46:17;99638.53;;;-2.22;83.98
74631;BME280;63138;55.082;38.804;2023-03-14T03:48:43;99635.34;;;-2.15;83.61
74631;BME280;63138;55.082;38.804;2023-03-14T03:51:14;99625.34;;;-2.11;83.69
74631;BME280;63138;55.082;38.804;2023-03-14T03:53:41;99623.56;;;-2.10;83.71
74631;BME280;63138;55.082;38.804;2023-03-14T03:56:10;99634.72;;;-2.05;83.93
74631;BME280;63138;55.082;38.804;2023-03-14T03:58:37;99615.78;;;-2.01;83.89
74631;BME280;63138;55.082;38.804;2023-03-14T04:01:05;99598.97;;;-2.01;83.34
74631;BME280;63138;55.082;38.804;2023-03-14T04:03:32;99603.03;;;-1.96;83.94
74631;BME280;63138;55.082;38.804;2023-03-14T04:08:25;99614.53;;;-1.82;82.87
74631;BME280;63138;55.082;38.804;2023-03-14T04:10:57;99597.06;;;-1.74;81.79
74631;BME280;63138;55.082;38.804;2023-03-14T04:13:38;99593.66;;;-1.63;80.48
74631;BME280;63138;55.082;38.804;2023-03-14T04:16:08;99612.63;;;-1.55;80.24
74631;BME280;63138;55.082;38.804;2023-03-14T04:18:36;99595.00;;;-1.44;78.31
74631;BME280;63138;55.082;38.804;2023-03-14T04:21:02;99599.06;;;-1.39;78.20
74631;BME280;63138;55.082;38.804;2023-03-14T04:23:38;99593.41;;;-1.34;77.64
74631;BME280;63138;55.082;38.804;2023-03-14T04:26:05;99605.66;;;-1.19;76.41
74631;BME280;63138;55.082;38.804;2023-03-14T04:28:31;99588.47;;;-1.14;76.15
74631;BME280;63138;55.082;38.804;2023-03-14T04:30:58;99592.28;;;-1.06;75.39
74631;BME280;63138;55.082;38.804;2023-03-14T04:33:25;99573.78;;;-0.96;74.75
74631;BME280;63138;55.082;38.804;2023-03-14T04:35:54;99594.78;;;-0.91;74.17
74631;BME280;63138;55.082;38.804;2023-03-14T04:38:38;99560.97;;;-0.91;73.65
74631;BME280;63138;55.082;38.804;2023-03-14T04:41:07;99583.09;;;-0.78;73.51
74631;BME280;63138;55.082;38.804;2023-03-14T04:43:34;99572.94;;;-0.72;73.26
74631;BME280;63138;55.082;38.804;2023-03-14T04:46:05;99577.47;;;-0.62;72.01
74631;BME280;63138;55.082;38.804;2023-03-14T04:48:31;99572.88;;;-0.60;71.81
74631;BME280;63138;55.082;38.804;2023-03-14T04:50:58;99547.34;;;-0.51;71.31
74631;BME280;63138;55.082;38.804;2023-03-14T04:53:25;99540.81;;;-0.47;71.06
74631;BME280;63138;55.082;38.804;2023-03-14T04:55:55;99545.28;;;-0.47;71.03
74631;BME280;63138;55.082;38.804;2023-03-14T04:58:23;99530.41;;;-0.39;70.54
74631;BME280;63138;55.082;38.804;2023-03-14T05:00:50;99513.94;;;-0.32;70.88
74631;BME280;63138;55.082;38.804;2023-03-14T05:03:40;99529.97;;;-0.32;70.38
74631;BME280;63138;55.082;38.804;2023-03-14T05:06:17;99512.13;;;-0.21;70.05
74631;BME280;63138;55.082;38.804;2023-03-14T05:09:00;99524.75;;;-0.11;69.57
74631;BME280;63138;55.082;38.804;2023-03-14T05:11:35;99514.69;;;-0.08;69.34
74631;BME280;63138;55.082;38.804;2023-03-14T05:14:22;99508.91;;;-0.02;69.32
74631;BME280;63138;55.082;38.804;2023-03-14T05:17:14;99523.22;;;0.09;68.79
74631;BME280;63138;55.082;38.804;2023-03-14T05:20:10;99491.88;;;0.11;68.72
74631;BME280;63138;55.082;38.804;2023-03-14T05:22:58;99511.19;;;0.14;68.80
74631;BME280;63138;55.082;38.804;2023-03-14T05:25:43;99528.59;;;0.20;68.72
74631;BME280;63138;55.082;38.804;2023-03-14T05:28:29;99510.00;;;0.18;69.39
74631;BME280;63138;55.082;38.804;2023-03-14T05:31:13;99505.28;;;0.22;68.95
74631;BME280;63138;55.082;38.804;2023-03-14T05:33:56;99488.13;;;0.25;69.39
74631;BME280;63138;55.082;38.804;2023-03-14T05:36:52;99488.13;;;0.25;69.52
74631;BME280;63138;55.082;38.804;2023-03-14T05:39:34;99506.22;;;0.32;69.25
74631;BME280;63138;55.082;38.804;2023-03-14T05:42:22;99495.19;;;0.37;68.58
74631;BME280;63138;55.082;38.804;2023-03-14T05:45:08;99494.56;;;0.45;68.34
74631;BME280;63138;55.082;38.804;2023-03-14T05:47:52;99497.59;;;0.51;68.31
74631;BME280;63138;55.082;38.804;2023-03-14T05:50:47;99485.56;;;0.57;67.42
74631;BME280;63138;55.082;38.804;2023-03-14T05:53:25;99476.56;;;0.69;67.64
74631;BME280;63138;55.082;38.804;2023-03-14T05:56:11;99478.59;;;0.77;67.00
74631;BME280;63138;55.082;38.804;2023-03-14T05:58:46;99488.78;;;0.83;66.95
74631;BME280;63138;55.082;38.804;2023-03-14T06:01:33;99490.47;;;0.84;66.64
74631;BME280;63138;55.082;38.804;2023-03-14T06:04:13;99495.59;;;0.87;67.05
74631;BME280;63138;55.082;38.804;2023-03-14T06:06:39;99479.53;;;0.87;66.47
74631;BME280;63138;55.082;38.804;2023-03-14T06:09:06;99470.41;;;0.90;66.35
74631;BME280;63138;55.082;38.804;2023-03-14T06:11:35;99474.78;;;0.91;66.51
74631;BME280;63138;55.082;38.804;2023-03-14T06:14:02;99489.59;;;0.95;66.22
74631;BME280;63138;55.082;38.804;2023-03-14T06:16:28;99484.72;;;1.00;66.20
74631;BME280;63138;55.082;38.804;2023-03-14T06:18:54;99466.47;;;1.05;66.29
74631;BME280;63138;55.082;38.804;2023-03-14T06:21:23;99493.56;;;1.12;66.08
74631;BME280;63138;55.082;38.804;2023-03-14T06:23:49;99472.91;;;1.14;66.10
74631;BME280;63138;55.082;38.804;2023-03-14T06:26:15;99468.50;;;1.13;65.76
74631;BME280;63138;55.082;38.804;2023-03-14T06:28:42;99478.84;;;1.18;65.68
74631;BME280;63138;55.082;38.804;2023-03-14T06:31:08;99458.16;;;1.20;65.58
74631;BME280;63138;55.082;38.804;2023-03-14T06:33:42;99488.88;;;1.25;65.57
74631;BME280;63138;55.082;38.804;2023-03-14T06:36:09;99485.84;;;1.30;65.98
74631;BME280;63138;55.082;38.804;2023-03-14T06:38:35;99492.38;;;1.37;65.36
74631;BME280;63138;55.082;38.804;2023-03-14T06:41:06;99469.13;;;1.38;65.47
74631;BME280;63138;55.082;38.804;2023-03-14T06:43:44;99483.47;;;1.37;65.54
74631;BME280;63138;55.082;38.804;2023-03-14T06:46:10;99507.69;;;1.35;65.20
74631;BME280;63138;55.082;38.804;2023-03-14T06:48:38;99488.81;;;1.37;65.51
74631;BME280;63138;55.082;38.804;2023-03-14T06:51:05;99454.63;;;1.40;65.57
74631;BME280;63138;55.082;38.804;2023-03-14T06:53:32;99487.19;;;1.45;65.41
74631;BME280;63138;55.082;38.804;2023-03-14T06:56:00;99467.03;;;1.41;65.86
74631;BME280;63138;55.082;38.804;2023-03-14T06:58:28;99479.06;;;1.47;65.69
74631;BME280;63138;55.082;38.804;2023-03-14T07:00:54;99448.25;;;1.52;65.11
74631;BME280;63138;55.082;38.804;2023-03-14T07:03:24;99455.31;;;1.53;65.36
74631;BME280;63138;55.082;38.804;2023-03-14T07:05:53;99455.75;;;1.59;65.28
74631;BME280;63138;55.082;38.804;2023-03-14T07:08:19;99445.78;;;1.61;65.06
74631;BME280;63138;55.082;38.804;2023-03-14T07:10:45;99455.34;;;1.63;64.80
74631;BME280;63138;55.082;38.804;2023-03-14T07:13:10;99452.28;;;1.68;65.53
74631;BME280;63138;55.082;38.804;2023-03-14T07:15:47;99421.59;;;1.72;64.65
74631;BME280;63138;55.082;38.804;2023-03-14T07:18:13;99471.06;;;1.78;65.03
74631;BME280;63138;55.082;38.804;2023-03-14T07:20:39;99478.72;;;1.82;64.83
74631;BME280;63138;55.082;38.804;2023-03-14T07:23:06;99473.38;;;1.82;64.59
74631;BME280;63138;55.082;38.804;2023-03-14T07:25:48;99485.75;;;1.83;64.63
74631;BME280;63138;55.082;38.804;2023-03-14T07:28:15;99454.34;;;1.85;64.25
74631;BME280;63138;55.082;38.804;2023-03-14T07:30:43;99447.06;;;1.87;64.35
74631;BME280;63138;55.082;38.804;2023-03-14T07:33:15;99453.00;;;1.91;64.34
74631;BME280;63138;55.082;38.804;2023-03-14T07:35:41;99453.28;;;1.98;64.35
74631;BME280;63138;55.082;38.804;2023-03-14T07:38:07;99440.47;;;2.01;64.10
74631;BME280;63138;55.082;38.804;2023-03-14T07:40:38;99459.22;;;2.01;64.13
74631;BME280;63138;55.082;38.804;2023-03-14T07:43:05;99453.59;;;2.04;63.86
74631;BME280;63138;55.082;38.804;2023-03-14T07:45:46;99418.22;;;2.10;64.00
74631;BME280;63138;55.082;38.804;2023-03-14T07:48:12;99441.25;;;2.13;63.29
74631;BME280;63138;55.082;38.804;2023-03-14T07:50:37;99439.59;;;2.22;62.73
74631;BME280;63138;55.082;38.804;2023-03-14T07:53:03;99456.09;;;2.27;62.79
74631;BME280;63138;55.082;38.804;2023-03-14T07:55:29;99461.03;;;2.32;62.71
74631;BME280;63138;55.082;38.804;2023-03-14T07:57:56;99419.00;;;2.32;62.84
74631;BME280;63138;55.082;38.804;2023-03-14T08:00:22;99448.94;;;2.37;62.75
74631;BME280;63138;55.082;38.804;2023-03-14T08:02:47;99408.72;;;2.37;62.98
74631;BME280;63138;55.082;38.804;2023-03-14T08:05:13;99437.00;;;2.51;62.36
74631;BME280;63138;55.082;38.804;2023-03-14T08:07:40;99416.25;;;2.53;62.18
74631;BME280;63138;55.082;38.804;2023-03-14T08:10:06;99402.31;;;2.59;62.04
74631;BME280;63138;55.082;38.804;2023-03-14T08:12:32;99444.63;;;2.65;61.96
74631;BME280;63138;55.082;38.804;2023-03-14T08:14:58;99447.06;;;2.68;61.74
74631;BME280;63138;55.082;38.804;2023-03-14T08:17:25;99427.72;;;2.75;61.44
74631;BME280;63138;55.082;38.804;2023-03-14T08:19:51;99446.22;;;2.78;61.39
74631;BME280;63138;55.082;38.804;2023-03-14T08:22:17;99439.97;;;2.77;61.33
74631;BME280;63138;55.082;38.804;2023-03-14T08:24:42;99434.91;;;2.84;61.26
74631;BME280;63138;55.082;38.804;2023-03-14T08:27:09;99425.59;;;2.88;60.89
74631;BME280;63138;55.082;38.804;2023-03-14T08:29:35;99397.38;;;2.84;60.52
74631;BME280;63138;55.082;38.804;2023-03-14T08:32:01;99398.09;;;2.96;60.47
74631;BME280;63138;55.082;38.804;2023-03-14T08:34:26;99437.19;;;2.98;60.53
74631;BME280;63138;55.082;38.804;2023-03-14T08:36:54;99451.88;;;3.04;60.24
74631;BME280;63138;55.082;38.804;2023-03-14T08:39:22;99406.84;;;3.08;60.24
74631;BME280;63138;55.082;38.804;2023-03-14T08:41:49;99445.09;;;3.10;59.79
74631;BME280;63138;55.082;38.804;2023-03-14T08:44:15;99426.75;;;3.15;59.74
74631;BME280;63138;55.082;38.804;2023-03-14T08:46:41;99467.44;;;3.10;59.21
74631;BME280;63138;55.082;38.804;2023-03-14T08:49:07;99441.59;;;3.19;59.86
74631;BME280;63138;55.082;38.804;2023-03-14T08:51:33;99441.72;;;3.17;59.28
74631;BME280;63138;55.082;38.804;2023-03-14T08:53:58;99442.28;;;3.21;59.69
74631;BME280;63138;55.082;38.804;2023-03-14T08:56:24;99441.84;;;3.25;59.38
74631;BME280;63138;55.082;38.804;2023-03-14T08:58:50;99437.03;;;3.29;59.05
74631;BME280;63138;55.082;38.804;2023-03-14T09:01:17;99443.41;;;3.38;59.07
74631;BME280;63138;55.082;38.804;2023-03-14T09:03:44;99454.69;;;3.41;58.86
74631;BME280;63138;55.082;38.804;2023-03-14T09:06:12;99366.25;;;3.40;58.43
74631;BME280;63138;55.082;38.804;2023-03-14T09:08:38;99451.00;;;3.52;58.50
74631;BME280;63138;55.082;38.804;2023-03-14T09:11:07;99371.91;;;3.47;58.40
74631;BME280;63138;55.082;38.804;2023-03-14T09:13:33;99446.91;;;3.58;58.21
74631;BME280;63138;55.082;38.804;2023-03-14T09:15:58;99425.56;;;3.56;57.85
74631;BME280;63138;55.082;38.804;2023-03-14T09:18:26;99405.19;;;3.63;57.78
74631;BME280;63138;55.082;38.804;2023-03-14T09:20:52;99445.34;;;3.65;57.85
74631;BME280;63138;55.082;38.804;2023-03-14T09:23:18;99445.34;;;3.65;57.68
74631;BME280;63138;55.082;38.804;2023-03-14T09:25:45;99458.31;;;3.79;57.73
74631;BME280;63138;55.082;38.804;2023-03-14T09:28:10;99442.38;;;3.68;57.55
74631;BME280;63138;55.082;38.804;2023-03-14T09:30:36;99443.06;;;3.70;57.48
74631;BME280;63138;55.082;38.804;2023-03-14T09:33:02;99450.38;;;3.78;57.71
74631;BME280;63138;55.082;38.804;2023-03-14T09:35:28;99380.75;;;3.67;57.83
74631;BME280;63138;55.082;38.804;2023-03-14T09:37:54;99435.72;;;3.72;57.23
74631;BME280;63138;55.082;38.804;2023-03-14T09:40:20;99447.31;;;3.73;57.85
74631;BME280;63138;55.082;38.804;2023-03-14T09:42:51;99381.00;;;3.73;57.91
74631;BME280;63138;55.082;38.804;2023-03-14T09:45:27;99379.16;;;3.83;57.51
74631;BME280;63138;55.082;38.804;2023-03-14T09:47:54;99425.97;;;3.71;57.68
74631;BME280;63138;55.082;38.804;2023-03-14T09:50:21;99378.63;;;3.70;57.62
74631;BME280;63138;55.082;38.804;2023-03-14T09:52:49;99395.00;;;3.67;57.41
74631;BME280;63138;55.082;38.804;2023-03-14T09:55:19;99408.56;;;3.75;57.81
74631;BME280;63138;55.082;38.804;2023-03-14T09:57:48;99408.44;;;3.77;57.66
74631;BME280;63138;55.082;38.804;2023-03-14T10:00:21;99370.28;;;3.73;57.67
74631;BME280;63138;55.082;38.804;2023-03-14T10:02:57;99393.84;;;3.79;57.88
74631;BME280;63138;55.082;38.804;2023-03-14T10:05:27;99412.81;;;3.68;57.89
74631;BME280;63138;55.082;38.804;2023-03-14T10:07:55;99425.09;;;3.80;57.98
74631;BME280;63138;55.082;38.804;2023-03-14T10:10:24;99404.91;;;3.76;57.36
74631;BME280;63138;55.082;38.804;2023-03-14T10:13:00;99378.03;;;3.76;57.67
74631;BME280;63138;55.082;38.804;2023-03-14T10:15:33;99392.16;;;3.78;57.80
74631;BME280;63138;55.082;38.804;2023-03-14T10:18:01;99407.03;;;3.73;57.78
74631;BME280;63138;55.082;38.804;2023-03-14T10:20:34;99436.53;;;3.82;57.84
74631;BME280;63138;55.082;38.804;2023-03-14T10:23:03;99427.50;;;3.83;57.73
74631;BME280;63138;55.082;38.804;2023-03-14T10:25:33;99414.75;;;3.86;58.06
74631;BME280;63138;55.082;38.804;2023-03-14T10:27:59;99442.28;;;3.97;57.28
74631;BME280;63138;55.082;38.804;2023-03-14T10:30:40;99448.00;;;4.12;57.25
74631;BME280;63138;55.082;38.804;2023-03-14T10:33:21;99443.75;;;4.19;56.88
74631;BME280;63138;55.082;38.804;2023-03-14T10:36:21;99431.88;;;4.22;56.86
74631;BME280;63138;55.082;38.804;2023-03-14T10:41:52;99457.50;;;4.44;56.11
74631;BME280;63138;55.082;38.804;2023-03-14T10:44:23;99449.56;;;4.52;55.97
74631;BME280;63138;55.082;38.804;2023-03-14T10:47:03;99446.72;;;4.54;55.98
74631;BME280;63138;55.082;38.804;2023-03-14T10:49:35;99438.41;;;4.47;55.62
74631;BME280;63138;55.082;38.804;2023-03-14T10:54:38;99434.81;;;4.56;55.56
74631;BME280;63138;55.082;38.804;2023-03-14T10:57:05;99448.09;;;4.58;55.73
74631;BME280;63138;55.082;38.804;2023-03-14T10:59:39;99441.19;;;4.73;55.53
74631;BME280;63138;55.082;38.804;2023-03-14T11:07:39;99418.06;;;4.81;55.22
74631;BME280;63138;55.082;38.804;2023-03-14T11:15:31;99425.25;;;4.90;54.53
74631;BME280;63138;55.082;38.804;2023-03-14T11:21:13;99429.75;;;4.89;54.41
74631;BME280;63138;55.082;38.804;2023-03-14T11:26:48;99436.22;;;4.78;54.41
74631;BME280;63138;55.082;38.804;2023-03-14T11:32:19;99401.91;;;4.63;54.86
74631;BME280;63138;55.082;38.804;2023-03-14T11:34:53;99417.56;;;4.49;55.75
74631;BME280;63138;55.082;38.804;2023-03-14T11:37:32;99407.59;;;4.42;55.62
74631;BME280;63138;55.082;38.804;2023-03-14T11:40:17;99434.06;;;4.36;56.14
74631;BME280;63138;55.082;38.804;2023-03-14T11:42:49;99408.50;;;4.22;56.12
74631;BME280;63138;55.082;38.804;2023-03-14T11:45:39;99396.53;;;4.17;56.31
74631;BME280;63138;55.082;38.804;2023-03-14T11:48:39;99414.66;;;4.05;56.85
74631;BME280;63138;55.082;38.804;2023-03-14T11:51:29;99421.25;;;3.93;57.23
74631;BME280;63138;55.082;38.804;2023-03-14T11:54:00;99394.66;;;3.90;57.54
74631;BME280;63138;55.082;38.804;2023-03-14T11:56:36;99383.38;;;3.86;57.87
74631;BME280;63138;55.082;38.804;2023-03-14T11:59:14;99402.31;;;3.85;57.84
74631;BME280;63138;55.082;38.804;2023-03-14T12:02:17;99391.84;;;3.81;57.65
74631;BME280;63138;55.082;38.804;2023-03-14T12:07:46;99400.50;;;3.75;58.67
74631;BME280;63138;55.082;38.804;2023-03-14T12:10:20;99353.34;;;3.63;58.44
74631;BME280;63138;55.082;38.804;2023-03-14T12:12:47;99429.91;;;3.67;58.03
74631;BME280;63138;55.082;38.804;2023-03-14T12:15:23;99375.84;;;3.62;58.43
74631;BME280;63138;55.082;38.804;2023-03-14T12:17:55;99434.47;;;3.57;58.97
74631;BME280;63138;55.082;38.804;2023-03-14T12:20:24;99415.38;;;3.60;58.61
74631;BME280;63138;55.082;38.804;2023-03-14T12:22:52;99418.06;;;3.60;59.17
74631;BME280;63138;55.082;38.804;2023-03-14T12:25:27;99431.81;;;3.57;58.81
74631;BME280;63138;55.082;38.804;2023-03-14T12:30:39;99435.47;;;3.56;58.81
74631;BME280;63138;55.082;38.804;2023-03-14T12:38:11;99429.81;;;3.49;59.36
74631;BME280;63138;55.082;38.804;2023-03-14T12:41:00;99434.91;;;3.52;59.10
74631;BME280;63138;55.082;38.804;2023-03-14T12:43:47;99467.94;;;3.53;58.93
74631;BME280;63138;55.082;38.804;2023-03-14T12:51:28;99455.25;;;3.55;59.04
74631;BME280;63138;55.082;38.804;2023-03-14T13:02:29;99442.53;;;3.47;59.44
74631;BME280;63138;55.082;38.804;2023-03-14T13:05:05;99463.72;;;3.50;59.45
74631;BME280;63138;55.082;38.804;2023-03-14T13:10:22;99483.81;;;3.46;59.42
74631;BME280;63138;55.082;38.804;2023-03-14T13:15:31;99479.28;;;3.47;59.41
74631;BME280;63138;55.082;38.804;2023-03-14T13:18:07;99469.81;;;3.42;59.07
74631;BME280;63138;55.082;38.804;2023-03-14T13:20:37;99465.44;;;3.41;59.40
74631;BME280;63138;55.082;38.804;2023-03-14T13:23:19;99451.59;;;3.36;59.17
74631;BME280;63138;55.082;38.804;2023-03-14T13:25:46;99478.84;;;3.41;59.22
74631;BME280;63138;55.082;38.804;2023-03-14T13:28:14;99477.59;;;3.36;59.58
74631;BME280;63138;55.082;38.804;2023-03-14T13:30:43;99440.00;;;3.36;59.13
74631;BME280;63138;55.082;38.804;2023-03-14T13:33:18;99435.22;;;3.30;59.39
74631;BME280;63138;55.082;38.804;2023-03-14T13:35:54;99467.00;;;3.34;59.65
74631;BME280;63138;55.082;38.804;2023-03-14T13:38:23;99455.69;;;3.31;59.24
74631;BME280;63138;55.082;38.804;2023-03-14T13:40:51;99481.41;;;3.23;60.17
74631;BME280;63138;55.082;38.804;2023-03-14T13:45:56;99474.19;;;3.24;59.84
74631;BME280;63138;55.082;38.804;2023-03-14T13:48:26;99470.09;;;3.20;59.45
74631;BME280;63138;55.082;38.804;2023-03-14T13:51:03;99469.25;;;3.19;59.39
74631;BME280;63138;55.082;38.804;2023-03-14T13:53:31;99450.63;;;3.18;59.48
74631;BME280;63138;55.082;38.804;2023-03-14T13:56:01;99478.41;;;3.17;59.83
74631;BME280;63138;55.082;38.804;2023-03-14T13:58:30;99484.66;;;3.17;60.03
74631;BME280;63138;55.082;38.804;2023-03-14T14:00:59;99454.56;;;3.14;59.58
74631;BME280;63138;55.082;38.804;2023-03-14T14:03:27;99471.50;;;3.14;59.85
74631;BME280;63138;55.082;38.804;2023-03-14T14:05:55;99458.94;;;3.15;59.88
74631;BME280;63138;55.082;38.804;2023-03-14T14:08:22;99473.22;;;3.15;59.39
74631;BME280;63138;55.082;38.804;2023-03-14T14:10:48;99462.50;;;3.15;59.25
74631;BME280;63138;55.082;38.804;2023-03-14T14:13:17;99436.78;;;3.13;59.37
74631;BME280;63138;55.082;38.804;2023-03-14T14:15:48;99450.31;;;3.11;59.48
74631;BME280;63138;55.082;38.804;2023-03-14T14:18:17;99460.34;;;3.09;59.50
74631;BME280;63138;55.082;38.804;2023-03-14T14:20:46;99456.13;;;3.06;59.13
74631;BME280;63138;55.082;38.804;2023-03-14T14:23:21;99453.88;;;3.12;58.79